Map

Track Data

SID SEASON NUMBER BASIN SUBBASIN NAME ISO_TIME NATURE LAT LON WMO_WIND WMO_PRES WMO_AGENCY TRACK_TYPE DIST2LAND LANDFALL IFLAG USA_AGENCY USA_ATCF_ID USA_LAT USA_LON USA_RECORD USA_STATUS USA_WIND USA_PRES USA_SSHS USA_R34_NE USA_R34_SE USA_R34_SW USA_R34_NW USA_R50_NE USA_R50_SE USA_R50_SW USA_R50_NW USA_R64_NE USA_R64_SE USA_R64_SW USA_R64_NW USA_POCI USA_ROCI USA_RMW USA_EYE TOKYO_LAT TOKYO_LON TOKYO_GRADE TOKYO_WIND TOKYO_PRES TOKYO_R50_DIR TOKYO_R50_LONG TOKYO_R50_SHORT TOKYO_R30_DIR TOKYO_R30_LONG TOKYO_R30_SHORT TOKYO_LAND CMA_LAT CMA_LON CMA_CAT CMA_WIND CMA_PRES HKO_LAT HKO_LON HKO_CAT HKO_WIND HKO_PRES NEWDELHI_LAT NEWDELHI_LON NEWDELHI_GRADE NEWDELHI_WIND NEWDELHI_PRES NEWDELHI_CI NEWDELHI_DP NEWDELHI_POCI REUNION_LAT REUNION_LON REUNION_TYPE REUNION_WIND REUNION_PRES REUNION_TNUM REUNION_CI REUNION_RMW REUNION_R34_NE REUNION_R34_SE REUNION_R34_SW REUNION_R34_NW REUNION_R50_NE REUNION_R50_SE REUNION_R50_SW REUNION_R50_NW REUNION_R64_NE REUNION_R64_SE REUNION_R64_SW REUNION_R64_NW BOM_LAT BOM_LON BOM_TYPE BOM_WIND BOM_PRES BOM_TNUM BOM_CI BOM_RMW BOM_R34_NE BOM_R34_SE BOM_R34_SW BOM_R34_NW BOM_R50_NE BOM_R50_SE BOM_R50_SW BOM_R50_NW BOM_R64_NE BOM_R64_SE BOM_R64_SW BOM_R64_NW BOM_ROCI BOM_POCI BOM_EYE BOM_POS_METHOD BOM_PRES_METHOD NADI_LAT NADI_LON NADI_CAT NADI_WIND NADI_PRES WELLINGTON_LAT WELLINGTON_LON WELLINGTON_WIND WELLINGTON_PRES DS824_LAT DS824_LON DS824_STAGE DS824_WIND DS824_PRES TD9636_LAT TD9636_LON TD9636_STAGE TD9636_WIND TD9636_PRES TD9635_LAT TD9635_LON TD9635_WIND TD9635_PRES TD9635_ROCI NEUMANN_LAT NEUMANN_LON NEUMANN_CLASS NEUMANN_WIND NEUMANN_PRES MLC_LAT MLC_LON MLC_CLASS MLC_WIND MLC_PRES USA_GUST BOM_GUST BOM_GUST_PER REUNION_GUST REUNION_GUST_PER USA_SEAHGT USA_SEARAD_NE USA_SEARAD_SE USA_SEARAD_SW USA_SEARAD_NW STORM_SPEED STORM_DIR
2017131S27168 2017 26 SP MM DONNA 2017-05-10 18:00:00 NR -26.5000 167.600 35 994 wellington main 463 463 ________O_____ -1 -26.5000 167.600 35 994 29 174
2017131S27168 2017 26 SP MM DONNA 2017-05-10 21:00:00 NR -27.9228 167.770 main 621 621 ________P_____ -1 -27.9228 167.770 35 994 28 173
2017131S27168 2017 26 SP MM DONNA 2017-05-11 00:00:00 NR -29.3000 168.000 35 994 wellington main 723 600 ________O_____ -1 -29.3000 168.000 35 994 27 169
2017131S27168 2017 26 SP MM DONNA 2017-05-11 03:00:00 NR -30.5696 168.340 main 592 479 ________P_____ -1 -30.5696 168.340 35 994 24 163
2017131S27168 2017 26 SP MM DONNA 2017-05-11 06:00:00 NR -31.6000 168.800 35 994 wellington main 479 391 ________O_____ -1 -31.6000 168.800 35 994 19 154
2017131S27168 2017 26 SP MM DONNA 2017-05-11 09:00:00 NR -32.2892 169.327 main 391 305 ________P_____ -1 -32.2892 169.327 35 994 16 140
2017131S27168 2017 26 SP MM DONNA 2017-05-11 12:00:00 NR -32.8000 170.000 35 995 wellington main 305 220 ________O_____ -1 -32.8000 170.000 35 995 16 132
2017131S27168 2017 26 SP MM DONNA 2017-05-11 15:00:00 NR -33.3548 170.753 main 206 106 ________P_____ -1 -33.3548 170.753 35 995 19 126
2017131S27168 2017 26 SP MM DONNA 2017-05-11 18:00:00 NR -33.9000 171.800 35 995 wellington main 99 14 ________O_____ -1 -33.9000 171.800 35 995 24 117
2017131S27168 2017 26 SP MM DONNA 2017-05-11 21:00:00 NR -34.4304 173.333 main 29 29 ________P_____ -1 -34.4304 173.333 35 995 29 113
2017131S27168 2017 26 SP MM DONNA 2017-05-12 00:00:00 NR -35.0000 175.000 35 995 wellington main 70 70 ________O_____ -1 -35.0000 175.000 35 995 28 116
2017131S27168 2017 26 SP MM DONNA 2017-05-12 03:00:00 NR -35.6667 176.375 main 128 128 ________P_____ -1 -35.6667 176.375 37 994 26 123
2017131S27168 2017 26 SP MM DONNA 2017-05-12 06:00:00 NR -36.4000 177.700 40 994 wellington main 136 75 ________O_____ -1 -36.4000 177.700 40 994 27 124
2017131S27168 2017 26 SP MM DONNA 2017-05-12 09:00:00 NR -37.1571 179.158 main 76 76 ________P_____ -1 -37.1571 179.158 40 993 28 123
2017131S27168 2017 26 SP MM DONNA 2017-05-12 12:00:00 NR -37.9000 180.600 40 992 wellington main 176 176 ________O_____ -1 -37.9000 -179.400 40 992 26 123
2017131S27168 2017 26 SP MM DONNA 2017-05-12 15:00:00 NR -38.6011 181.953 main 312 312 ________P_____ -1 -38.6011 -178.047 42 991 24 123
2017131S27168 2017 26 SP MM DONNA 2017-05-12 18:00:00 NR -39.2000 183.200 45 990 wellington main 430 430 ________O_____ -1 -39.2000 -176.800 45 990 22 120
2017131S27168 2017 26 SP MM DONNA 2017-05-12 21:00:00 NR -39.6971 184.398 main 541 541 ________P_____ -1 -39.6971 -175.602 45 990 19 115
2017131S27168 2017 26 SP MM DONNA 2017-05-13 00:00:00 NR -40.0000 185.400 45 990 wellington main 631 631 ________O_____ -1 -40.0000 -174.600 45 990 14 105
2017131S27168 2017 26 SP MM DONNA 2017-05-13 03:00:00 NR -40.0662 186.157 main 700 700 ________P_____ -1 -40.0662 -173.843 45 990 10 90
2017131S27168 2017 26 SP MM DONNA 2017-05-13 06:00:00 NR -40.0000 186.700 45 990 wellington main 739 739 ________O_____ -1 -40.0000 -173.300 45 990 8 83
2017131S27168 2017 26 SP MM DONNA 2017-05-13 09:00:00 NR -39.9719 187.137 main 773 773 ________P_____ -1 -39.9719 -172.863 45 990 6 81
2017131S27168 2017 26 SP MM DONNA 2017-05-13 12:00:00 NR -39.9000 187.500 45 990 wellington main 805 805 ________O_____ -1 -39.9000 -172.500 45 990 6 70
2017131S27168 2017 26 SP MM DONNA 2017-05-13 15:00:00 NR -39.7574 187.900 main 837 834 ________P_____ -1 -39.7574 -172.100 45 990 7 64
2017131S27168 2017 26 SP MM DONNA 2017-05-13 18:00:00 NR -39.6000 188.300 45 990 wellington main 865 865 ________O_____ -1 -39.6000 -171.700 45 990 6 65
2017131S27168 2017 26 SP MM DONNA 2017-05-13 21:00:00 NR -39.4914 188.632 main 888 888 ________P_____ -1 -39.4914 -171.368 45 990 6 72
2017131S27168 2017 26 SP MM DONNA 2017-05-14 00:00:00 NR -39.4000 189.100 45 990 wellington main 929 929 ________O_____ -1 -39.4000 -170.900 45 990 10 79
2017131S27168 2017 26 SP MM DONNA 2017-05-14 03:00:00 NR -39.3081 189.882 main 995 995 ________P_____ -1 -39.3081 -170.118 45 990 13 81
2017131S27168 2017 26 SP MM DONNA 2017-05-14 06:00:00 NR -39.2000 190.800 45 990 wellington main 1071 1071 ________O_____ -1 -39.2000 -169.200 45 990 13 79
2017131S27168 2017 26 SP MM DONNA 2017-05-14 09:00:00 NR -39.0626 191.582 main 1139 1139 ________P_____ -1 -39.0626 -168.418 45 990 14 77
2017131S27168 2017 26 SP MM DONNA 2017-05-14 12:00:00 NR -38.9000 192.500 45 991 wellington main 1215 1215 ________O_____ -1 -38.9000 -167.500 45 991 17 77
2017131S27168 2017 26 SP MM DONNA 2017-05-14 15:00:00 NR -38.6703 193.727 main 1319 1319 ________P_____ -1 -38.6703 -166.273 42 991 21 79
2017131S27168 2017 26 SP MM DONNA 2017-05-14 18:00:00 NR -38.5000 195.100 40 992 wellington main 1440 1440 ________O_____ -1 -38.5000 -164.900 40 992 22 84
2017131S27168 2017 26 SP MM DONNA 2017-05-14 21:00:00 NR -38.4598 196.473 main 1562 1562 ________P_____ -1 -38.4598 -163.527 40 992 21 93
2017131S27168 2017 26 SP MM DONNA 2017-05-15 00:00:00 NR -38.6000 197.800 40 992 wellington main 1674 1674 ________O_____ -1 -38.6000 -162.200 40 992 21 104
2017131S27168 2017 26 SP MM DONNA 2017-05-15 03:00:00 NR -38.9620 199.037 main 1776 1776 ________P_____ -1 -38.9620 -160.963 40 992 20 114
2017131S27168 2017 26 SP MM DONNA 2017-05-15 06:00:00 NR -39.4000 200.100 40 992 wellington main 1869 1869 ________O_____ -1 -39.4000 -159.900 40 992 16 118
2017131S27168 2017 26 SP MM DONNA 2017-05-15 09:00:00 NR -39.7377 200.921 main 1937 1937 ________P_____ -1 -39.7377 -159.079 40 992 13 117
2017131S27168 2017 26 SP MM DONNA 2017-05-15 12:00:00 NR -40.0000 201.600 40 992 wellington main 1996 ________O_____ -1 -40.0000 -158.400 40 992 12 117

Digital Typhoon Data and Search

About IBTrACS Database

This database is a web-friendly format of International Best Track Archive for Climate Stewardship (IBTrACS), a global best track data archive curated by NOAA dating back to 1842.

Updated: 2021-11-26